Time;durP1;ratioP1;P1;durP2;ratioP2;P2;SDS_P1;SDS_P2;PMS_P1;PMS_P2;Temp;Humidity;BMP_temperature;BMP_pressure;BME280_temperature;BME280_humidity;BME280_pressure;Samples;Min_cycle;Max_cycle;Signal;HPM_P1;HPM_P2
2022/09/29 00:00:15;;;;;;;0.10;0.10;;;7.60;99.90;;;;;;5107819;28;20071;-45
2022/09/29 00:02:41;;;;;;;0.28;0.28;;;7.60;99.90;;;;;;5102385;28;20519;-45
2022/09/29 00:05:08;;;;;;;0.35;0.20;;;7.50;99.90;;;;;;5111578;28;20096;-49
2022/09/29 00:07:35;;;;;;;0.22;0.20;;;7.50;99.90;;;;;;5108079;28;20075;-45
2022/09/29 00:10:03;;;;;;;2.03;0.40;;;7.50;99.90;;;;;;5101008;28;20050;-45
2022/09/29 00:12:30;;;;;;;0.40;0.20;;;7.50;99.90;;;;;;5114104;28;20380;-45
2022/09/29 00:14:57;;;;;;;0.52;0.20;;;7.40;99.90;;;;;;5114916;28;20143;-45
2022/09/29 00:17:23;;;;;;;0.33;0.20;;;7.40;99.90;;;;;;5109443;28;20126;-47
2022/09/29 00:19:50;;;;;;;0.65;0.30;;;7.40;99.90;;;;;;5107372;28;20365;-45
2022/09/29 00:22:17;;;;;;;4.68;0.20;;;7.40;99.90;;;;;;5108228;28;20123;-45
2022/09/29 00:24:45;;;;;;;0.75;0.47;;;7.40;99.90;;;;;;5094643;28;20508;-45
2022/09/29 00:27:14;;;;;;;0.47;0.22;;;7.40;99.90;;;;;;5094544;28;20088;-45
2022/09/29 00:29:41;;;;;;;1.02;0.30;;;7.40;99.90;;;;;;5076572;28;20459;-46
2022/09/29 00:32:08;;;;;;;1.63;0.40;;;7.40;99.90;;;;;;5094575;28;20048;-46
2022/09/29 00:34:34;;;;;;;0.70;0.38;;;7.40;99.90;;;;;;5094022;28;20075;-47
2022/09/29 00:37:01;;;;;;;0.43;0.28;;;7.40;99.90;;;;;;5094912;28;20116;-45
2022/09/29 00:39:28;;;;;;;0.30;0.20;;;7.40;99.90;;;;;;5093879;28;20467;-46
2022/09/29 00:41:56;;;;;;;1.05;0.30;;;7.40;99.90;;;;;;5094250;28;20114;-45
2022/09/29 00:44:51;;;;;;;3.15;0.30;;;7.40;99.90;;;;;;5075394;28;20550;-45
2022/09/29 00:47:18;;;;;;;0.40;0.30;;;7.40;99.90;;;;;;5094443;28;20079;-46
2022/09/29 00:49:56;;;;;;;0.73;0.40;;;7.40;99.90;;;;;;5098456;28;20067;-46
2022/09/29 00:52:30;;;;;;;;;;;7.40;99.90;;;;;;5111984;28;20071;-46
2022/09/29 00:55:19;;;;;;;4.43;0.35;;;7.40;99.90;;;;;;5104567;28;19955;-45
2022/09/29 00:57:56;;;;;;;0.40;0.28;;;7.40;99.90;;;;;;5105796;28;20078;-45
2022/09/29 01:00:23;;;;;;;0.80;0.40;;;7.40;99.90;;;;;;5100886;28;20064;-47
2022/09/29 01:03:07;;;;;;;0.47;0.20;;;7.40;99.90;;;;;;5106047;28;20044;-45
2022/09/29 01:05:38;;;;;;;0.80;0.45;;;7.40;99.90;;;;;;5104370;28;20071;-46
2022/09/29 01:08:12;;;;;;;2.00;0.40;;;7.40;99.90;;;;;;5094012;28;20067;-46
2022/09/29 01:10:42;;;;;;;2.13;0.38;;;7.40;99.90;;;;;;5092826;28;20076;-45
2022/09/29 01:13:08;;;;;;;0.93;0.40;;;7.40;99.90;;;;;;5093177;28;20048;-45
2022/09/29 01:15:35;;;;;;;0.60;0.40;;;7.40;99.90;;;;;;5075089;28;20488;-45
2022/09/29 01:18:02;;;;;;;1.33;0.70;;;7.40;99.90;;;;;;5099568;28;20115;-46
2022/09/29 01:20:32;;;;;;;0.60;0.45;;;7.40;99.90;;;;;;5113390;28;20075;-46
2022/09/29 01:23:02;;;;;;;1.65;0.70;;;7.30;99.90;;;;;;5113354;28;20075;-45
2022/09/29 01:25:30;;;;;;;0.70;0.30;;;7.30;99.90;;;;;;5093885;28;20577;-45
2022/09/29 01:27:56;;;;;;;1.17;0.60;;;7.30;99.90;;;;;;5092805;28;20076;-45
2022/09/29 01:30:47;;;;;;;0.52;0.30;;;7.30;99.90;;;;;;5098635;28;20068;-45
2022/09/29 01:33:31;;;;;;;0.88;0.30;;;7.30;99.90;;;;;;5092986;28;20092;-45
2022/09/29 01:36:07;;;;;;;0.80;0.57;;;7.20;99.90;;;;;;5093614;28;20493;-45
2022/09/29 01:39:10;;;;;;;1.00;0.70;;;7.20;99.90;;;;;;5093368;28;20535;-46
2022/09/29 01:41:52;;;;;;;1.15;0.60;;;7.10;99.90;;;;;;5093641;28;20059;-45
2022/09/29 01:44:35;;;;;;;0.65;0.35;;;7.10;99.90;;;;;;5092631;28;20072;-45
2022/09/29 01:47:17;;;;;;;2.92;0.63;;;7.00;99.90;;;;;;5097569;28;20119;-46
2022/09/29 01:49:49;;;;;;;2.50;0.60;;;7.00;99.90;;;;;;5093293;28;20100;-47
2022/09/29 01:52:20;;;;;;;3.33;0.85;;;7.00;99.90;;;;;;5092164;28;20127;-45
2022/09/29 01:54:53;;;;;;;2.72;0.80;;;7.00;99.90;;;;;;5092385;28;20067;-46
2022/09/29 01:57:30;;;;;;;0.85;0.70;;;7.00;99.90;;;;;;5093137;28;20068;-45
2022/09/29 02:00:08;;;;;;;1.85;0.88;;;7.00;99.90;;;;;;5108654;22;20070;-47
2022/09/29 02:02:49;;;;;;;0.50;0.50;;;7.00;99.90;;;;;;5105678;28;20411;-48
2022/09/29 02:05:27;;;;;;;1.88;0.70;;;7.00;99.90;;;;;;5108298;28;20039;-47
2022/09/29 02:07:59;;;;;;;3.17;1.02;;;7.00;99.90;;;;;;5113757;28;20044;-47
2022/09/29 02:10:31;;;;;;;2.58;0.93;;;7.00;99.90;;;;;;5106470;28;20087;-47
2022/09/29 02:13:01;;;;;;;2.75;1.00;;;7.10;99.90;;;;;;5089781;28;20072;-47
2022/09/29 02:15:35;;;;;;;1.48;0.80;;;7.00;99.90;;;;;;5091501;28;20119;-47
2022/09/29 02:18:08;;;;;;;1.08;0.73;;;7.30;99.90;;;;;;5092532;28;20074;-48
2022/09/29 02:20:35;;;;;;;4.93;1.45;;;6.90;99.90;;;;;;5083001;28;20074;-47
2022/09/29 02:23:02;;;;;;;2.67;1.00;;;6.90;99.90;;;;;;5089893;28;20120;-47
2022/09/29 02:25:33;;;;;;;2.42;1.50;;;6.90;99.90;;;;;;5099216;28;20082;-49
2022/09/29 02:28:00;;;;;;;4.07;1.70;;;6.90;99.90;;;;;;5104167;28;20531;-48
2022/09/29 02:30:27;;;;;;;7.60;1.63;;;6.90;99.90;;;;;;5089839;28;20075;-47
2022/09/29 02:32:54;;;;;;;35.17;2.13;;;7.00;99.90;;;;;;5092656;28;20036;-47
2022/09/29 02:35:21;;;;;;;9.55;1.30;;;6.90;99.90;;;;;;5089467;28;20043;-48
2022/09/29 02:37:53;;;;;;;3.83;1.25;;;6.90;99.90;;;;;;5088610;28;20076;-47
2022/09/29 02:40:57;;;;;;;1.67;1.05;;;7.00;99.90;;;;;;5091821;28;20119;-47
2022/09/29 02:44:00;;;;;;;1.02;0.90;;;7.00;99.90;;;;;;5069772;28;20085;-47
2022/09/29 02:46:58;;;;;;;56.40;3.38;;;7.00;99.90;;;;;;5091708;28;20083;-48
2022/09/29 02:49:37;;;;;;;143.35;8.70;;;7.00;99.90;;;;;;5091421;28;20131;-48
2022/09/29 02:52:25;;;;;;;60.85;3.42;;;6.90;99.90;;;;;;5078166;28;20567;-48
2022/09/29 02:55:01;;;;;;;;;;;6.90;99.90;;;;;;5086006;28;20063;-47
2022/09/29 02:57:41;;;;;;;49.47;3.38;;;6.80;99.90;;;;;;5091165;28;19971;-47
2022/09/29 03:00:13;;;;;;;26.27;2.03;;;6.90;99.90;;;;;;5091527;28;20070;-47
2022/09/29 03:02:41;;;;;;;13.20;2.00;;;6.80;99.90;;;;;;5085543;28;20106;-47
2022/09/29 03:05:11;;;;;;;7.53;2.00;;;6.80;99.90;;;;;;5091362;28;20133;-48
2022/09/29 03:07:39;;;;;;;33.10;2.20;;;6.80;99.90;;;;;;5091471;28;20142;-47
2022/09/29 03:10:07;;;;;;;14.90;3.08;;;6.80;99.90;;;;;;5088868;28;20535;-48
2022/09/29 03:12:34;;;;;;;8.73;2.17;;;6.80;99.90;;;;;;5091008;28;20123;-47
2022/09/29 03:15:01;;;;;;;;;;;6.80;99.90;;;;;;5089131;28;20082;-47
2022/09/29 03:17:28;;;;;;;4.25;2.25;;;6.80;99.90;;;;;;5091646;28;19920;-48
2022/09/29 03:19:55;;;;;;;5.03;1.40;;;6.90;99.90;;;;;;5090933;28;20530;-47
2022/09/29 03:22:21;;;;;;;4.97;1.20;;;6.80;99.90;;;;;;5091446;28;20071;-47
2022/09/29 03:24:48;;;;;;;0.88;0.60;;;6.80;99.90;;;;;;5088336;28;20072;-48
2022/09/29 03:27:15;;;;;;;0.40;0.30;;;6.80;99.90;;;;;;5090694;28;20048;-47
2022/09/29 03:29:42;;;;;;;2.60;0.80;;;6.90;99.90;;;;;;5088677;28;20579;-48
2022/09/29 03:32:09;;;;;;;2.15;1.30;;;6.90;99.90;;;;;;5084390;28;20129;-47
2022/09/29 03:34:36;;;;;;;3.63;1.27;;;6.90;99.90;;;;;;5090911;28;20437;-47
2022/09/29 03:37:03;;;;;;;2.33;1.13;;;6.90;99.90;;;;;;5087530;28;20131;-47
2022/09/29 03:39:30;;;;;;;;;;;6.90;99.90;;;;;;5090625;28;20074;-47
2022/09/29 03:41:56;;;;;;;1.20;0.80;;;6.90;99.90;;;;;;5090554;28;19955;-48
2022/09/29 03:44:23;;;;;;;0.77;0.45;;;6.90;99.90;;;;;;5090729;28;20090;-47
2022/09/29 03:46:50;;;;;;;0.85;0.38;;;6.90;99.90;;;;;;5080994;28;20118;-48
2022/09/29 03:49:17;;;;;;;0.30;0.30;;;6.90;99.90;;;;;;5090362;28;20032;-47
2022/09/29 03:51:44;;;;;;;0.65;0.63;;;6.90;99.90;;;;;;5090940;28;20071;-48
2022/09/29 03:54:11;;;;;;;1.42;0.88;;;6.90;99.90;;;;;;5086003;28;20124;-48
2022/09/29 03:56:37;;;;;;;2.28;0.98;;;6.90;99.90;;;;;;5087052;28;20540;-47
2022/09/29 03:59:08;;;;;;;2.03;0.57;;;6.90;99.90;;;;;;5091232;28;20075;-48
2022/09/29 04:01:36;;;;;;;1.20;0.77;;;6.90;99.90;;;;;;5090408;28;20060;-47
2022/09/29 04:04:05;;;;;;;5.45;0.70;;;6.80;99.90;;;;;;5083143;28;20062;-48
2022/09/29 04:06:32;;;;;;;6.20;0.80;;;6.80;99.90;;;;;;5071265;28;20083;-48
2022/09/29 04:08:59;;;;;;;2.88;1.10;;;6.80;99.90;;;;;;5089627;28;20397;-48
2022/09/29 04:11:26;;;;;;;3.55;2.05;;;6.80;99.90;;;;;;5091015;28;20076;-47
2022/09/29 04:13:53;;;;;;;3.25;1.90;;;6.80;99.90;;;;;;5077905;28;20131;-47
2022/09/29 04:16:20;;;;;;;5.88;2.30;;;6.80;99.90;;;;;;5088512;28;20122;-47
2022/09/29 04:18:46;;;;;;;4.50;2.67;;;6.80;99.90;;;;;;5090280;28;20054;-47
2022/09/29 04:21:13;;;;;;;4.95;2.92;;;6.80;99.90;;;;;;5085311;28;20044;-47
2022/09/29 04:23:40;;;;;;;6.03;2.78;;;6.80;99.90;;;;;;5089992;28;20116;-47
2022/09/29 04:26:07;;;;;;;5.28;2.42;;;6.80;99.90;;;;;;5089216;28;20094;-47
2022/09/29 04:28:35;;;;;;;3.95;1.98;;;6.80;99.90;;;;;;5090579;28;20072;-47
2022/09/29 04:31:02;;;;;;;9.05;1.33;;;6.80;99.90;;;;;;5088073;28;20040;-47
2022/09/29 04:33:30;;;;;;;1.73;1.08;;;6.80;99.90;;;;;;5089719;28;20043;-47
2022/09/29 04:35:57;;;;;;;1.23;1.00;;;6.80;99.90;;;;;;5088709;28;20044;-47
2022/09/29 04:38:24;;;;;;;1.27;0.90;;;6.80;99.90;;;;;;5089000;28;20068;-49
2022/09/29 04:40:51;;;;;;;0.73;0.57;;;6.70;99.90;;;;;;5080909;28;20127;-48
2022/09/29 04:43:18;;;;;;;0.28;0.28;;;6.80;99.90;;;;;;5114773;28;20047;-47
2022/09/29 04:45:45;;;;;;;6.95;0.82;;;6.80;99.90;;;;;;5107146;28;20044;-48
2022/09/29 04:48:12;;;;;;;0.85;0.60;;;6.80;99.90;;;;;;5093129;28;20063;-47
2022/09/29 04:50:38;;;;;;;3.25;0.75;;;6.80;99.90;;;;;;5089556;28;20067;-48
2022/09/29 04:53:06;;;;;;;0.90;0.60;;;6.80;99.90;;;;;;5086715;28;20456;-48
2022/09/29 04:55:33;;;;;;;1.48;0.50;;;6.80;99.90;;;;;;5092966;28;20048;-48
2022/09/29 04:58:00;;;;;;;4.30;0.77;;;6.80;99.90;;;;;;5094547;28;20539;-48
2022/09/29 05:00:26;;;;;;;9.02;3.47;;;6.80;99.90;;;;;;5109365;28;20075;-47
2022/09/29 05:02:53;;;;;;;5.50;2.40;;;6.70;99.90;;;;;;5094041;28;20558;-48
2022/09/29 05:05:20;;;;;;;2.78;1.65;;;6.60;99.90;;;;;;5091296;28;20094;-47
2022/09/29 05:07:47;;;;;;;4.13;1.90;;;6.70;99.90;;;;;;5093271;28;20112;-47
2022/09/29 05:10:14;;;;;;;6.30;3.25;;;6.70;99.90;;;;;;5083682;28;20049;-47
2022/09/29 05:12:45;;;;;;;2.20;1.27;;;6.70;99.90;;;;;;5089062;28;20151;-47
2022/09/29 05:15:12;;;;;;;5.78;1.90;;;6.70;99.90;;;;;;5090659;28;20064;-47
2022/09/29 05:17:39;;;;;;;4.35;1.67;;;6.70;99.90;;;;;;5093830;28;20097;-47
2022/09/29 05:20:06;;;;;;;1.67;0.85;;;6.70;99.90;;;;;;5080458;28;20045;-47
2022/09/29 05:22:33;;;;;;;0.75;0.55;;;6.70;99.90;;;;;;5077293;28;20173;-47
2022/09/29 05:24:59;;;;;;;3.33;0.60;;;6.70;99.90;;;;;;5085296;28;20044;-48
2022/09/29 05:27:26;;;;;;;0.63;0.40;;;6.70;99.90;;;;;;5091710;28;20036;-47
2022/09/29 05:29:53;;;;;;;0.50;0.50;;;6.80;99.90;;;;;;5082072;28;20051;-47
2022/09/29 05:32:20;;;;;;;1.52;0.80;;;6.80;99.90;;;;;;5091669;28;20716;-47
2022/09/29 05:34:49;;;;;;;1.73;1.23;;;6.80;99.90;;;;;;5075351;28;20043;-47
2022/09/29 05:37:17;;;;;;;8.07;3.67;;;6.90;99.90;;;;;;5093626;28;20126;-48
2022/09/29 05:39:43;;;;;;;26.52;11.70;;;6.90;99.90;;;;;;5081315;28;20044;-47
2022/09/29 05:42:11;;;;;;;24.20;11.65;;;6.90;99.90;;;;;;5093280;28;20552;-47
2022/09/29 05:44:38;;;;;;;13.75;6.55;;;7.00;99.90;;;;;;5085967;28;20036;-47
2022/09/29 05:47:04;;;;;;;8.30;4.78;;;7.00;99.90;;;;;;5073086;28;20534;-46
2022/09/29 05:49:32;;;;;;;5.57;3.63;;;7.00;99.90;;;;;;5091693;28;20071;-48
2022/09/29 05:51:59;;;;;;;10.05;3.28;;;7.00;99.90;;;;;;5091597;28;20073;-48
2022/09/29 05:54:29;;;;;;;;;;;7.10;99.90;;;;;;5081920;28;20170;-49
2022/09/29 05:56:55;;;;;;;9.23;3.97;;;7.10;99.90;;;;;;5086534;28;19920;-47
2022/09/29 05:59:22;;;;;;;11.02;4.78;;;7.20;99.90;;;;;;5092195;28;20119;-48
2022/09/29 06:01:49;;;;;;;6.80;2.58;;;7.20;99.90;;;;;;5091814;28;20571;-48
2022/09/29 06:04:16;;;;;;;2.38;1.30;;;7.20;99.90;;;;;;5079626;28;20048;-47
2022/09/29 06:06:43;;;;;;;3.30;1.20;;;7.10;99.90;;;;;;5086322;28;20534;-47
2022/09/29 06:09:10;;;;;;;2.15;1.08;;;7.10;99.90;;;;;;5074432;28;20079;-48
2022/09/29 06:11:36;;;;;;;2.28;1.35;;;7.10;99.90;;;;;;5092751;28;20550;-47
2022/09/29 06:14:03;;;;;;;2.67;1.40;;;7.20;99.90;;;;;;5083073;28;20119;-47
2022/09/29 06:16:31;;;;;;;2.45;1.52;;;7.20;99.90;;;;;;5112629;28;20063;-47
2022/09/29 06:19:00;;;;;;;1.80;1.20;;;7.20;99.90;;;;;;5112094;28;20148;-47
2022/09/29 06:21:27;;;;;;;2.10;1.55;;;7.30;99.90;;;;;;5098953;28;20075;-47
2022/09/29 06:23:55;;;;;;;7.88;2.92;;;7.40;99.90;;;;;;5092115;28;20122;-48
2022/09/29 06:26:23;;;;;;;26.98;12.43;;;7.50;99.90;;;;;;5091389;28;20110;-47
2022/09/29 06:28:51;;;;;;;24.63;10.98;;;7.50;99.90;;;;;;5092732;28;20052;-48
2022/09/29 06:31:20;;;;;;;9.45;6.45;;;7.50;99.90;;;;;;5086211;28;20072;-47
2022/09/29 06:33:47;;;;;;;4.15;2.95;;;7.50;99.90;;;;;;5091983;28;20274;-48
2022/09/29 06:39:14;;;;;;;3.67;2.90;;;7.60;99.90;;;;;;5084778;28;20048;-48
2022/09/29 06:41:43;;;;;;;11.20;4.75;;;7.60;99.90;;;;;;5092325;28;20115;-47
2022/09/29 06:44:10;;;;;;;7.35;4.10;;;7.60;99.90;;;;;;5091422;28;20082;-47
2022/09/29 06:46:37;;;;;;;7.65;2.90;;;7.60;99.90;;;;;;5089748;28;20074;-49
2022/09/29 06:49:04;;;;;;;4.50;2.55;;;7.70;99.90;;;;;;5088307;28;20079;-47
2022/09/29 06:51:30;;;;;;;3.40;2.40;;;7.70;99.90;;;;;;5091747;28;20044;-47
2022/09/29 06:54:12;;;;;;;6.47;1.95;;;7.90;99.90;;;;;;5090562;28;20075;-47
2022/09/29 06:56:39;;;;;;;3.90;1.98;;;8.00;99.90;;;;;;5082804;28;20040;-47
2022/09/29 06:59:06;;;;;;;8.10;2.15;;;8.20;99.90;;;;;;5092092;28;20058;-48
2022/09/29 07:01:33;;;;;;;4.82;2.42;;;8.30;99.90;;;;;;5090869;28;20060;-47
2022/09/29 07:04:01;;;;;;;6.75;3.05;;;8.40;99.90;;;;;;5091443;28;20052;-48
2022/09/29 07:06:28;;;;;;;6.25;3.47;;;8.60;99.90;;;;;;5084368;28;20040;-47
2022/09/29 07:08:55;;;;;;;;;;;8.80;99.90;;;;;;5092159;28;20048;-47
2022/09/29 07:11:22;;;;;;;8.07;4.18;;;9.10;99.90;;;;;;5091540;28;19947;-47
2022/09/29 07:13:50;;;;;;;11.85;5.28;;;9.30;99.90;;;;;;5068748;28;20044;-47
2022/09/29 07:16:22;;;;;;;6.45;4.30;;;9.30;99.90;;;;;;5072083;28;20055;-47
2022/09/29 07:18:50;;;;;;;9.38;4.60;;;9.30;99.90;;;;;;5091188;28;20052;-47
2022/09/29 07:21:18;;;;;;;4.88;3.67;;;9.40;99.90;;;;;;5085294;28;20032;-47
2022/09/29 07:23:46;;;;;;;5.70;3.75;;;9.30;99.90;;;;;;5090959;28;20055;-50
2022/09/29 07:26:15;;;;;;;5.88;4.25;;;9.20;99.90;;;;;;5090598;28;20075;-47
2022/09/29 07:28:43;;;;;;;5.50;3.40;;;9.20;99.90;;;;;;5087096;28;20087;-49
2022/09/29 07:31:13;;;;;;;6.63;3.92;;;9.20;99.90;;;;;;5088221;28;20055;-48
2022/09/29 07:33:42;;;;;;;7.93;3.80;;;9.10;99.90;;;;;;5091042;28;20050;-48
2022/09/29 07:36:10;;;;;;;4.95;3.20;;;9.10;99.90;;;;;;5091529;28;20064;-50
2022/09/29 07:38:37;;;;;;;5.38;3.25;;;9.20;99.90;;;;;;5076935;28;20382;-49
2022/09/29 07:41:12;;;;;;;4.45;2.90;;;9.20;99.90;;;;;;5091259;28;20089;-49
2022/09/29 07:43:39;;;;;;;12.48;5.50;;;9.30;99.90;;;;;;5090782;28;20044;-47
2022/09/29 07:46:06;;;;;;;;;;;9.20;99.90;;;;;;5087858;28;20476;-47
2022/09/29 07:48:34;;;;;;;6.93;3.42;;;9.30;99.90;;;;;;5084740;28;20023;-47
2022/09/29 07:51:09;;;;;;;6.03;3.72;;;9.40;99.90;;;;;;5091391;28;20040;-48
2022/09/29 07:53:37;;;;;;;6.90;3.53;;;9.60;99.90;;;;;;5090765;28;20119;-47
2022/09/29 07:56:17;;;;;;;5.43;3.80;;;9.70;99.90;;;;;;5076561;28;20075;-47
2022/09/29 07:58:45;;;;;;;4.78;3.08;;;9.90;99.90;;;;;;5084626;28;20044;-47
2022/09/29 08:01:14;;;;;;;5.13;2.38;;;9.80;99.90;;;;;;5112494;22;20074;-45
2022/09/29 08:03:53;;;;;;;3.88;2.80;;;9.80;99.90;;;;;;5093202;28;20040;-46
2022/09/29 08:06:21;;;;;;;4.20;3.05;;;9.80;99.90;;;;;;5104852;28;20040;-46
2022/09/29 08:08:48;;;;;;;5.05;3.22;;;9.90;99.90;;;;;;5107555;28;20048;-46
2022/09/29 08:11:29;;;;;;;4.97;3.00;;;10.00;99.90;;;;;;5099560;28;20377;-47
2022/09/29 08:13:59;;;;;;;9.50;3.30;;;9.90;99.90;;;;;;5092451;28;20086;-45
2022/09/29 08:16:26;;;;;;;6.97;2.70;;;9.90;99.90;;;;;;5095145;28;20096;-46
2022/09/29 08:18:53;;;;;;;5.03;2.55;;;9.90;99.90;;;;;;5081501;28;20253;-45
2022/09/29 08:21:19;;;;;;;3.00;2.60;;;9.90;99.90;;;;;;5094743;28;20074;-45
2022/09/29 08:23:47;;;;;;;4.03;2.60;;;10.00;99.90;;;;;;5094596;28;20044;-45
2022/09/29 08:26:16;;;;;;;4.47;2.20;;;10.00;99.90;;;;;;5093861;28;20131;-45
2022/09/29 08:28:44;;;;;;;3.38;2.20;;;10.10;99.90;;;;;;5094601;28;20109;-45
2022/09/29 08:31:20;;;;;;;6.45;2.50;;;10.20;99.90;;;;;;5094446;28;20040;-47
2022/09/29 08:33:48;;;;;;;3.78;2.67;;;10.30;99.90;;;;;;5087906;28;20408;-45
2022/09/29 08:36:16;;;;;;;4.03;2.75;;;10.30;99.90;;;;;;5094066;28;20043;-45
2022/09/29 08:38:45;;;;;;;5.75;3.35;;;10.40;99.90;;;;;;5094352;28;20536;-45
2022/09/29 08:41:39;;;;;;;6.15;3.67;;;10.50;99.90;;;;;;5092745;28;20097;-45
2022/09/29 08:44:15;;;;;;;7.35;3.30;;;10.50;99.90;;;;;;5093944;28;20110;-46
2022/09/29 08:47:39;;;;;;;5.10;2.92;;;10.60;99.90;;;;;;5090466;28;20044;-45
2022/09/29 08:50:27;;;;;;;5.25;2.90;;;10.80;99.90;;;;;;5045464;28;20060;-45
2022/09/29 08:52:57;;;;;;;3.75;2.28;;;11.00;99.90;;;;;;5094384;28;20071;-46
2022/09/29 08:55:39;;;;;;;5.68;3.17;;;11.10;99.90;;;;;;5092261;28;20097;-45
2022/09/29 08:58:13;;;;;;;8.32;2.45;;;11.10;99.90;;;;;;5094089;28;20114;-46
2022/09/29 09:01:10;;;;;;;2.40;1.50;;;11.30;99.90;;;;;;5091315;28;20060;-45
2022/09/29 09:03:52;;;;;;;2.90;1.40;;;11.30;99.90;;;;;;5087426;28;20040;-45
2022/09/29 09:06:41;;;;;;;4.18;1.88;;;11.30;99.90;;;;;;5094120;28;20396;-46
2022/09/29 09:09:32;;;;;;;2.78;1.90;;;11.40;99.90;;;;;;5092604;28;20093;-45
2022/09/29 09:12:17;;;;;;;1.77;1.35;;;11.40;99.90;;;;;;5079660;28;20142;-45
2022/09/29 09:14:46;;;;;;;1.85;1.15;;;11.30;99.90;;;;;;5091373;28;20068;-45
2022/09/29 09:17:48;;;;;;;8.40;1.70;;;11.30;99.90;;;;;;5093965;28;20098;-47
2022/09/29 09:20:45;;;;;;;2.72;1.17;;;11.20;99.90;;;;;;5092630;28;20044;-45
2022/09/29 09:23:21;;;;;;;3.63;1.85;;;11.20;99.90;;;;;;5093650;28;20047;-45
2022/09/29 09:25:58;;;;;;;1.92;1.15;;;11.20;99.90;;;;;;5092364;28;20040;-45
2022/09/29 09:28:47;;;;;;;4.00;1.70;;;11.20;99.90;;;;;;5092135;28;20490;-45
2022/09/29 09:31:20;;;;;;;2.10;1.50;;;11.20;99.90;;;;;;5092965;28;20117;-45
2022/09/29 09:33:56;;;;;;;1.77;1.33;;;11.20;99.90;;;;;;5092928;28;20555;-45
2022/09/29 09:36:49;;;;;;;5.32;1.27;;;11.30;99.90;;;;;;5092194;28;20032;-45
2022/09/29 09:39:44;;;;;;;1.60;1.13;;;11.40;99.90;;;;;;5093610;28;20370;-45
2022/09/29 09:42:18;;;;;;;3.05;1.42;;;11.60;99.90;;;;;;5093570;28;20044;-51
2022/09/29 09:44:53;;;;;;;1.10;1.00;;;11.70;99.90;;;;;;5073721;28;20067;-45
2022/09/29 09:47:29;;;;;;;4.05;1.13;;;11.80;99.90;;;;;;5092578;28;20118;-46
2022/09/29 09:50:01;;;;;;;2.08;1.25;;;11.90;99.90;;;;;;5093235;28;20044;-46
2022/09/29 09:52:40;;;;;;;1.23;1.13;;;12.10;99.90;;;;;;5092311;28;20068;-46
2022/09/29 09:55:15;;;;;;;1.55;0.90;;;12.10;99.90;;;;;;5092678;28;20075;-45
2022/09/29 09:57:48;;;;;;;2.55;1.00;;;12.20;99.90;;;;;;5091825;28;20113;-46
2022/09/29 10:00:25;;;;;;;2.97;1.50;;;12.20;99.90;;;;;;5092998;28;20074;-46
2022/09/29 10:02:54;;;;;;;2.38;1.40;;;12.50;99.90;;;;;;5093235;28;20067;-46
2022/09/29 10:05:41;;;;;;;2.40;1.27;;;12.60;99.90;;;;;;5091709;28;20071;-46
2022/09/29 10:08:22;;;;;;;1.90;1.20;;;12.70;99.90;;;;;;5093202;28;20097;-45
2022/09/29 10:10:49;;;;;;;0.88;0.70;;;12.60;99.90;;;;;;5093044;28;20079;-45
2022/09/29 10:13:27;;;;;;;1.20;0.90;;;12.50;99.90;;;;;;5092001;28;20050;-46
2022/09/29 10:16:05;;;;;;;2.38;0.98;;;12.50;99.90;;;;;;5090729;28;20086;-47
2022/09/29 10:18:36;;;;;;;1.38;0.85;;;12.40;99.90;;;;;;5092786;28;20036;-45
2022/09/29 10:21:03;;;;;;;2.10;0.75;;;12.30;99.90;;;;;;5091626;28;20068;-46
2022/09/29 10:23:34;;;;;;;2.55;1.27;;;12.30;99.90;;;;;;5092024;28;20569;-46
2022/09/29 10:26:16;;;;;;;2.33;1.35;;;12.20;99.90;;;;;;5091684;28;20440;-45
2022/09/29 10:28:59;;;;;;;1.52;1.10;;;12.30;99.90;;;;;;5092820;28;20461;-45
2022/09/29 10:31:32;;;;;;;0.90;0.90;;;12.20;99.90;;;;;;5090495;28;20075;-49
2022/09/29 10:34:01;;;;;;;2.00;0.85;;;12.00;99.90;;;;;;5091869;28;20079;-45
2022/09/29 10:36:45;;;;;;;1.95;1.05;;;12.00;99.90;;;;;;5092281;28;20040;-46
2022/09/29 10:39:41;;;;;;;4.10;1.00;;;11.80;99.90;;;;;;5090648;28;20097;-45
2022/09/29 10:42:26;;;;;;;1.35;1.00;;;11.80;99.90;;;;;;5091895;28;20043;-45
2022/09/29 10:44:59;;;;;;;1.30;0.60;;;11.80;99.90;;;;;;5091763;28;20048;-46
2022/09/29 10:47:26;;;;;;;0.80;0.77;;;12.10;99.90;;;;;;5091709;28;20561;-45
2022/09/29 10:50:17;;;;;;;1.30;0.82;;;12.30;99.90;;;;;;5090707;28;20124;-46
2022/09/29 10:52:55;;;;;;;0.82;0.77;;;12.40;99.90;;;;;;5091910;28;20040;-45
2022/09/29 10:55:27;;;;;;;0.80;0.57;;;12.40;99.90;;;;;;5091573;28;20039;-49
2022/09/29 10:57:59;;;;;;;1.02;0.60;;;12.40;99.90;;;;;;5090593;28;20122;-45
2022/09/29 11:00:30;;;;;;;1.95;0.90;;;12.30;99.90;;;;;;5091940;28;20060;-45
2022/09/29 11:03:04;;;;;;;0.88;0.80;;;12.50;99.90;;;;;;5092067;28;20046;-45
2022/09/29 11:05:31;;;;;;;1.77;0.82;;;12.50;99.90;;;;;;5090131;28;20072;-45
2022/09/29 11:07:58;;;;;;;;;;;12.50;99.90;;;;;;5092224;28;20074;-46
2022/09/29 11:10:34;;;;;;;2.10;0.52;;;12.80;99.90;;;;;;5091461;28;19959;-45
2022/09/29 11:13:23;;;;;;;0.70;0.70;;;13.10;99.90;;;;;;5091918;28;20043;-45
2022/09/29 11:15:50;;;;;;;2.92;1.10;;;13.20;99.90;;;;;;5085645;28;20044;-45
2022/09/29 11:18:32;;;;;;;2.42;0.70;;;13.00;99.90;;;;;;5091271;28;20126;-45
2022/09/29 11:21:27;;;;;;;1.15;0.70;;;12.90;99.90;;;;;;5091778;28;20489;-45
2022/09/29 11:24:12;;;;;;;1.95;0.98;;;12.80;99.90;;;;;;5090981;28;20040;-46
2022/09/29 11:27:09;;;;;;;1.20;0.60;;;12.80;99.90;;;;;;5090270;28;20443;-48
2022/09/29 11:30:17;;;;;;;1.20;0.90;;;12.80;99.90;;;;;;5083433;28;20129;-45
2022/09/29 11:33:04;;;;;;;2.10;0.90;;;12.80;99.90;;;;;;5007889;28;20507;-45
2022/09/29 11:36:00;;;;;;;0.75;0.75;;;12.80;99.90;;;;;;5007414;28;20137;-45
2022/09/29 11:38:45;;;;;;;1.35;0.65;;;12.90;99.90;;;;;;5074638;28;20445;-48
2022/09/29 11:41:24;;;;;;;3.17;0.75;;;13.10;99.90;;;;;;5091204;28;20072;-48
2022/09/29 11:43:59;;;;;;;1.25;0.50;;;13.10;99.90;;;;;;5089249;28;20157;-46
2022/09/29 11:46:38;;;;;;;3.40;0.70;;;13.40;99.90;;;;;;5091240;28;20053;-46
2022/09/29 11:49:31;;;;;;;4.15;0.80;;;13.70;99.90;;;;;;5090910;28;20044;-45
2022/09/29 11:52:04;;;;;;;1.30;0.60;;;13.70;99.90;;;;;;5086325;28;20068;-45
2022/09/29 11:54:42;;;;;;;1.05;0.63;;;13.70;99.90;;;;;;5091082;28;20068;-46
2022/09/29 11:57:25;;;;;;;0.80;0.65;;;13.70;99.90;;;;;;5090560;28;20044;-52
2022/09/29 12:00:06;;;;;;;1.17;0.50;;;13.80;99.90;;;;;;5089374;28;20071;-45
2022/09/29 12:02:39;;;;;;;2.53;0.60;;;14.00;99.90;;;;;;5082906;28;20407;-45
2022/09/29 12:05:28;;;;;;;3.33;0.70;;;14.10;99.90;;;;;;5089703;28;20079;-48
2022/09/29 12:07:57;;;;;;;;;;;14.00;99.90;;;;;;5091589;28;20078;-45
2022/09/29 12:10:43;;;;;;;0.65;0.40;;;13.70;99.90;;;;;;5090908;28;19955;-45
2022/09/29 12:13:37;;;;;;;0.68;0.50;;;13.50;99.90;;;;;;5090602;28;20109;-46
2022/09/29 12:16:29;;;;;;;2.50;0.40;;;13.30;99.90;;;;;;5091013;28;20068;-46
2022/09/29 12:19:09;;;;;;;3.22;0.40;;;13.10;99.90;;;;;;5090026;28;20048;-45
2022/09/29 12:21:39;;;;;;;0.47;0.32;;;13.10;99.90;;;;;;5083200;28;20488;-45
2022/09/29 12:24:15;;;;;;;0.43;0.28;;;13.00;99.90;;;;;;5090443;28;20040;-45
2022/09/29 12:26:46;;;;;;;0.90;0.50;;;12.90;99.90;;;;;;5090334;28;20544;-50
2022/09/29 12:29:32;;;;;;;1.02;0.60;;;12.70;99.90;;;;;;5084864;28;20048;-48
2022/09/29 12:32:08;;;;;;;0.65;0.52;;;12.70;99.90;;;;;;5090788;28;20102;-45
2022/09/29 12:34:45;;;;;;;2.83;0.80;;;12.60;99.90;;;;;;5090334;28;20520;-47
2022/09/29 12:37:18;;;;;;;1.77;0.55;;;12.40;99.90;;;;;;5083893;28;20068;-45
2022/09/29 12:39:51;;;;;;;2.30;0.70;;;12.30;99.90;;;;;;5090991;28;20466;-47
2022/09/29 12:42:37;;;;;;;0.60;0.60;;;12.20;99.90;;;;;;5090565;28;20076;-46
2022/09/29 12:45:24;;;;;;;0.95;0.80;;;12.10;99.90;;;;;;5084221;28;20112;-45
2022/09/29 12:48:24;;;;;;;1.13;0.70;;;12.10;99.90;;;;;;5084989;28;20123;-48
2022/09/29 12:51:08;;;;;;;1.48;0.75;;;12.20;99.90;;;;;;5090412;28;20584;-45
2022/09/29 12:53:52;;;;;;;1.20;0.65;;;12.20;99.90;;;;;;5069813;28;20048;-45
2022/09/29 12:56:40;;;;;;;2.95;0.75;;;12.40;99.90;;;;;;5089053;28;20493;-47
2022/09/29 12:59:22;;;;;;;0.70;0.60;;;12.40;99.90;;;;;;5085002;28;20045;-46
2022/09/29 13:01:54;;;;;;;2.58;0.63;;;12.40;99.90;;;;;;5094406;28;20079;-45
2022/09/29 13:04:21;;;;;;;0.73;0.63;;;12.30;99.90;;;;;;5092767;28;20032;-47
2022/09/29 13:06:50;;;;;;;2.58;0.52;;;12.30;99.90;;;;;;5094065;28;20044;-46
2022/09/29 13:09:33;;;;;;;1.40;0.50;;;12.20;99.90;;;;;;5087253;28;20048;-45
2022/09/29 13:12:24;;;;;;;1.92;0.80;;;12.10;99.90;;;;;;5093856;28;20119;-46
2022/09/29 13:15:03;;;;;;;1.02;0.68;;;12.00;99.90;;;;;;5092243;28;20131;-47
2022/09/29 13:17:51;;;;;;;0.85;0.85;;;12.00;99.90;;;;;;5090872;28;20504;-47
2022/09/29 13:20:38;;;;;;;1.35;0.93;;;12.00;99.90;;;;;;5089077;28;20040;-45
2022/09/29 13:23:31;;;;;;;1.40;1.08;;;12.00;99.90;;;;;;5089939;28;20078;-45
2022/09/29 13:26:15;;;;;;;0.65;0.63;;;11.90;99.90;;;;;;5092472;28;20492;-46
2022/09/29 13:28:48;;;;;;;1.90;0.90;;;11.70;99.90;;;;;;5093957;28;20064;-45
2022/09/29 13:31:24;;;;;;;1.95;0.90;;;11.70;99.90;;;;;;5091295;28;20463;-45